sensor_id;sensor_type;location;lat;lon;timestamp;P1;durP1;ratioP1;P2;durP2;ratioP2
18445;SDS011;9352;50.888;4.466;2023-06-10T00:01:23;9.43;;;6.97;;
18445;SDS011;9352;50.888;4.466;2023-06-10T00:03:50;7.10;;;6.40;;
18445;SDS011;9352;50.888;4.466;2023-06-10T00:06:17;8.93;;;7.13;;
18445;SDS011;9352;50.888;4.466;2023-06-10T00:08:46;7.90;;;7.10;;
18445;SDS011;9352;50.888;4.466;2023-06-10T00:11:13;13.25;;;6.68;;
18445;SDS011;9352;50.888;4.466;2023-06-10T00:13:40;10.48;;;7.00;;
18445;SDS011;9352;50.888;4.466;2023-06-10T00:16:07;13.88;;;7.43;;
18445;SDS011;9352;50.888;4.466;2023-06-10T00:18:35;10.90;;;7.07;;
18445;SDS011;9352;50.888;4.466;2023-06-10T00:21:03;10.65;;;6.70;;
18445;SDS011;9352;50.888;4.466;2023-06-10T00:23:30;8.52;;;6.78;;
18445;SDS011;9352;50.888;4.466;2023-06-10T00:26:02;11.15;;;7.07;;
18445;SDS011;9352;50.888;4.466;2023-06-10T00:28:30;12.02;;;7.10;;
18445;SDS011;9352;50.888;4.466;2023-06-10T00:30:56;10.48;;;7.60;;
18445;SDS011;9352;50.888;4.466;2023-06-10T00:33:23;8.10;;;6.57;;
18445;SDS011;9352;50.888;4.466;2023-06-10T00:35:51;7.88;;;6.72;;
18445;SDS011;9352;50.888;4.466;2023-06-10T00:38:19;9.40;;;6.85;;
18445;SDS011;9352;50.888;4.466;2023-06-10T00:40:45;12.82;;;6.70;;
18445;SDS011;9352;50.888;4.466;2023-06-10T00:43:12;10.00;;;6.97;;
18445;SDS011;9352;50.888;4.466;2023-06-10T00:45:39;15.70;;;6.63;;
18445;SDS011;9352;50.888;4.466;2023-06-10T00:48:06;9.88;;;7.40;;
18445;SDS011;9352;50.888;4.466;2023-06-10T00:50:33;7.85;;;7.03;;
18445;SDS011;9352;50.888;4.466;2023-06-10T00:53:04;10.75;;;6.88;;
18445;SDS011;9352;50.888;4.466;2023-06-10T00:55:31;8.77;;;7.63;;
18445;SDS011;9352;50.888;4.466;2023-06-10T00:57:59;8.48;;;6.97;;
18445;SDS011;9352;50.888;4.466;2023-06-10T01:00:26;13.18;;;7.28;;
18445;SDS011;9352;50.888;4.466;2023-06-10T01:02:53;8.20;;;6.82;;
18445;SDS011;9352;50.888;4.466;2023-06-10T01:05:20;10.80;;;7.10;;
18445;SDS011;9352;50.888;4.466;2023-06-10T01:07:49;9.63;;;7.30;;
18445;SDS011;9352;50.888;4.466;2023-06-10T01:10:24;10.63;;;7.60;;
18445;SDS011;9352;50.888;4.466;2023-06-10T01:12:58;9.88;;;7.47;;
18445;SDS011;9352;50.888;4.466;2023-06-10T01:15:27;9.00;;;7.97;;
18445;SDS011;9352;50.888;4.466;2023-06-10T01:17:56;9.98;;;7.70;;
18445;SDS011;9352;50.888;4.466;2023-06-10T01:20:24;11.57;;;7.30;;
18445;SDS011;9352;50.888;4.466;2023-06-10T01:22:54;9.77;;;7.88;;
18445;SDS011;9352;50.888;4.466;2023-06-10T01:25:23;8.13;;;7.32;;
18445;SDS011;9352;50.888;4.466;2023-06-10T01:27:53;12.93;;;7.40;;
18445;SDS011;9352;50.888;4.466;2023-06-10T01:30:27;9.18;;;7.20;;
18445;SDS011;9352;50.888;4.466;2023-06-10T01:32:58;14.77;;;8.75;;
18445;SDS011;9352;50.888;4.466;2023-06-10T01:35:27;13.57;;;8.27;;
18445;SDS011;9352;50.888;4.466;2023-06-10T01:37:58;13.32;;;8.30;;
18445;SDS011;9352;50.888;4.466;2023-06-10T01:40:26;16.05;;;8.00;;
18445;SDS011;9352;50.888;4.466;2023-06-10T01:42:54;22.88;;;7.88;;
18445;SDS011;9352;50.888;4.466;2023-06-10T01:45:21;13.90;;;7.80;;
18445;SDS011;9352;50.888;4.466;2023-06-10T01:47:48;10.15;;;7.85;;
18445;SDS011;9352;50.888;4.466;2023-06-10T01:50:14;11.55;;;8.05;;
18445;SDS011;9352;50.888;4.466;2023-06-10T01:52:42;9.98;;;7.80;;
18445;SDS011;9352;50.888;4.466;2023-06-10T01:55:10;11.68;;;8.20;;
18445;SDS011;9352;50.888;4.466;2023-06-10T01:57:37;10.50;;;8.07;;
18445;SDS011;9352;50.888;4.466;2023-06-10T02:00:04;12.70;;;8.18;;
18445;SDS011;9352;50.888;4.466;2023-06-10T02:02:33;8.60;;;7.35;;
18445;SDS011;9352;50.888;4.466;2023-06-10T02:04:59;10.80;;;8.02;;
18445;SDS011;9352;50.888;4.466;2023-06-10T02:07:26;13.15;;;8.50;;
18445;SDS011;9352;50.888;4.466;2023-06-10T02:09:53;13.75;;;8.20;;
18445;SDS011;9352;50.888;4.466;2023-06-10T02:12:21;11.95;;;8.20;;
18445;SDS011;9352;50.888;4.466;2023-06-10T02:14:48;9.10;;;7.90;;
18445;SDS011;9352;50.888;4.466;2023-06-10T02:17:15;10.90;;;7.97;;
18445;SDS011;9352;50.888;4.466;2023-06-10T02:19:42;9.70;;;7.47;;
18445;SDS011;9352;50.888;4.466;2023-06-10T02:22:09;10.55;;;7.82;;
18445;SDS011;9352;50.888;4.466;2023-06-10T02:24:36;8.38;;;7.15;;
18445;SDS011;9352;50.888;4.466;2023-06-10T02:27:04;12.77;;;7.75;;
18445;SDS011;9352;50.888;4.466;2023-06-10T02:29:34;13.48;;;7.80;;
18445;SDS011;9352;50.888;4.466;2023-06-10T02:32:01;13.38;;;8.15;;
18445;SDS011;9352;50.888;4.466;2023-06-10T02:34:29;20.60;;;7.95;;
18445;SDS011;9352;50.888;4.466;2023-06-10T02:36:56;9.93;;;8.07;;
18445;SDS011;9352;50.888;4.466;2023-06-10T02:39:23;16.55;;;9.65;;
18445;SDS011;9352;50.888;4.466;2023-06-10T02:41:49;15.40;;;10.80;;
18445;SDS011;9352;50.888;4.466;2023-06-10T02:44:17;14.13;;;10.13;;
18445;SDS011;9352;50.888;4.466;2023-06-10T02:46:45;14.82;;;10.38;;
18445;SDS011;9352;50.888;4.466;2023-06-10T02:49:12;17.38;;;10.65;;
18445;SDS011;9352;50.888;4.466;2023-06-10T02:51:39;13.05;;;9.45;;
18445;SDS011;9352;50.888;4.466;2023-06-10T02:54:06;13.75;;;9.55;;
18445;SDS011;9352;50.888;4.466;2023-06-10T02:56:33;12.93;;;9.85;;
18445;SDS011;9352;50.888;4.466;2023-06-10T02:59:01;12.65;;;9.65;;
18445;SDS011;9352;50.888;4.466;2023-06-10T03:01:28;13.05;;;9.75;;
18445;SDS011;9352;50.888;4.466;2023-06-10T03:03:58;18.45;;;9.52;;
18445;SDS011;9352;50.888;4.466;2023-06-10T03:06:24;16.20;;;9.30;;
18445;SDS011;9352;50.888;4.466;2023-06-10T03:08:51;13.20;;;8.98;;
18445;SDS011;9352;50.888;4.466;2023-06-10T03:11:18;12.23;;;9.50;;
18445;SDS011;9352;50.888;4.466;2023-06-10T03:13:45;12.63;;;9.98;;
18445;SDS011;9352;50.888;4.466;2023-06-10T03:16:12;11.10;;;9.95;;
18445;SDS011;9352;50.888;4.466;2023-06-10T03:18:39;12.73;;;10.10;;
18445;SDS011;9352;50.888;4.466;2023-06-10T03:21:07;14.07;;;9.65;;
18445;SDS011;9352;50.888;4.466;2023-06-10T03:23:34;10.88;;;9.38;;
18445;SDS011;9352;50.888;4.466;2023-06-10T03:26:02;13.63;;;9.65;;
18445;SDS011;9352;50.888;4.466;2023-06-10T03:28:29;13.65;;;9.73;;
18445;SDS011;9352;50.888;4.466;2023-06-10T03:30:56;14.75;;;9.45;;
18445;SDS011;9352;50.888;4.466;2023-06-10T03:33:23;12.75;;;9.25;;
18445;SDS011;9352;50.888;4.466;2023-06-10T03:35:51;12.55;;;9.32;;
18445;SDS011;9352;50.888;4.466;2023-06-10T03:38:19;13.55;;;9.25;;
18445;SDS011;9352;50.888;4.466;2023-06-10T03:40:46;18.10;;;10.35;;
18445;SDS011;9352;50.888;4.466;2023-06-10T03:43:13;13.43;;;10.20;;
18445;SDS011;9352;50.888;4.466;2023-06-10T03:45:40;13.82;;;10.25;;
18445;SDS011;9352;50.888;4.466;2023-06-10T03:48:07;13.93;;;10.27;;
18445;SDS011;9352;50.888;4.466;2023-06-10T03:50:34;13.65;;;9.63;;
18445;SDS011;9352;50.888;4.466;2023-06-10T03:53:01;14.38;;;10.30;;
18445;SDS011;9352;50.888;4.466;2023-06-10T03:55:30;10.95;;;9.85;;
18445;SDS011;9352;50.888;4.466;2023-06-10T03:57:57;12.57;;;10.27;;
18445;SDS011;9352;50.888;4.466;2023-06-10T04:00:24;12.82;;;10.32;;
18445;SDS011;9352;50.888;4.466;2023-06-10T04:02:51;13.60;;;10.48;;
18445;SDS011;9352;50.888;4.466;2023-06-10T04:05:18;20.67;;;10.07;;
18445;SDS011;9352;50.888;4.466;2023-06-10T04:07:47;13.13;;;9.55;;
18445;SDS011;9352;50.888;4.466;2023-06-10T04:10:14;15.50;;;10.00;;
18445;SDS011;9352;50.888;4.466;2023-06-10T04:12:44;14.68;;;10.10;;
18445;SDS011;9352;50.888;4.466;2023-06-10T04:15:11;15.73;;;11.02;;
18445;SDS011;9352;50.888;4.466;2023-06-10T04:17:38;17.38;;;11.23;;
18445;SDS011;9352;50.888;4.466;2023-06-10T04:20:05;24.70;;;13.05;;
18445;SDS011;9352;50.888;4.466;2023-06-10T04:22:34;19.15;;;14.85;;
18445;SDS011;9352;50.888;4.466;2023-06-10T04:25:01;23.00;;;14.32;;
18445;SDS011;9352;50.888;4.466;2023-06-10T04:27:28;21.52;;;12.70;;
18445;SDS011;9352;50.888;4.466;2023-06-10T04:29:57;17.38;;;11.68;;
18445;SDS011;9352;50.888;4.466;2023-06-10T04:32:23;15.98;;;10.93;;
18445;SDS011;9352;50.888;4.466;2023-06-10T04:34:51;16.20;;;9.23;;
18445;SDS011;9352;50.888;4.466;2023-06-10T04:37:18;13.27;;;9.95;;
18445;SDS011;9352;50.888;4.466;2023-06-10T04:39:45;16.90;;;10.15;;
18445;SDS011;9352;50.888;4.466;2023-06-10T04:42:12;15.00;;;10.48;;
18445;SDS011;9352;50.888;4.466;2023-06-10T04:44:39;16.73;;;9.85;;
18445;SDS011;9352;50.888;4.466;2023-06-10T04:47:08;11.35;;;9.10;;
18445;SDS011;9352;50.888;4.466;2023-06-10T04:49:34;19.00;;;10.50;;
18445;SDS011;9352;50.888;4.466;2023-06-10T04:52:02;13.52;;;10.00;;
18445;SDS011;9352;50.888;4.466;2023-06-10T04:54:30;16.17;;;10.45;;
18445;SDS011;9352;50.888;4.466;2023-06-10T04:56:57;16.10;;;10.02;;
18445;SDS011;9352;50.888;4.466;2023-06-10T04:59:24;13.15;;;10.45;;
18445;SDS011;9352;50.888;4.466;2023-06-10T05:01:51;12.55;;;11.25;;
18445;SDS011;9352;50.888;4.466;2023-06-10T05:04:19;18.23;;;12.73;;
18445;SDS011;9352;50.888;4.466;2023-06-10T05:06:46;13.77;;;10.80;;
18445;SDS011;9352;50.888;4.466;2023-06-10T05:09:13;17.33;;;10.13;;
18445;SDS011;9352;50.888;4.466;2023-06-10T05:11:40;12.55;;;9.82;;
18445;SDS011;9352;50.888;4.466;2023-06-10T05:14:07;12.02;;;10.10;;
18445;SDS011;9352;50.888;4.466;2023-06-10T05:16:34;13.55;;;10.15;;
18445;SDS011;9352;50.888;4.466;2023-06-10T05:19:01;16.65;;;11.48;;
18445;SDS011;9352;50.888;4.466;2023-06-10T05:21:29;13.02;;;10.52;;
18445;SDS011;9352;50.888;4.466;2023-06-10T05:23:56;16.17;;;10.43;;
18445;SDS011;9352;50.888;4.466;2023-06-10T05:26:23;15.90;;;10.23;;
18445;SDS011;9352;50.888;4.466;2023-06-10T05:28:50;11.40;;;10.10;;
18445;SDS011;9352;50.888;4.466;2023-06-10T05:31:17;14.10;;;10.75;;
18445;SDS011;9352;50.888;4.466;2023-06-10T05:33:44;18.58;;;10.77;;
18445;SDS011;9352;50.888;4.466;2023-06-10T05:36:11;19.95;;;10.77;;
18445;SDS011;9352;50.888;4.466;2023-06-10T05:38:40;14.43;;;10.43;;
18445;SDS011;9352;50.888;4.466;2023-06-10T05:41:06;15.98;;;10.20;;
18445;SDS011;9352;50.888;4.466;2023-06-10T05:43:33;15.63;;;10.23;;
18445;SDS011;9352;50.888;4.466;2023-06-10T05:46:00;14.23;;;10.75;;
18445;SDS011;9352;50.888;4.466;2023-06-10T05:48:27;17.80;;;10.02;;
18445;SDS011;9352;50.888;4.466;2023-06-10T05:50:54;12.75;;;10.02;;
18445;SDS011;9352;50.888;4.466;2023-06-10T05:53:21;11.82;;;9.98;;
18445;SDS011;9352;50.888;4.466;2023-06-10T05:55:49;11.00;;;9.77;;
18445;SDS011;9352;50.888;4.466;2023-06-10T05:58:17;12.25;;;10.57;;
18445;SDS011;9352;50.888;4.466;2023-06-10T06:00:44;20.42;;;10.25;;
18445;SDS011;9352;50.888;4.466;2023-06-10T06:03:11;14.27;;;10.05;;
18445;SDS011;9352;50.888;4.466;2023-06-10T06:05:38;18.42;;;10.68;;
18445;SDS011;9352;50.888;4.466;2023-06-10T06:08:05;16.48;;;9.60;;
18445;SDS011;9352;50.888;4.466;2023-06-10T06:10:32;16.85;;;10.65;;
18445;SDS011;9352;50.888;4.466;2023-06-10T06:13:01;13.82;;;10.15;;
18445;SDS011;9352;50.888;4.466;2023-06-10T06:15:28;11.73;;;10.07;;
18445;SDS011;9352;50.888;4.466;2023-06-10T06:17:55;14.63;;;10.52;;
18445;SDS011;9352;50.888;4.466;2023-06-10T06:20:22;14.55;;;9.90;;
18445;SDS011;9352;50.888;4.466;2023-06-10T06:22:49;17.20;;;9.95;;
18445;SDS011;9352;50.888;4.466;2023-06-10T06:25:16;15.23;;;9.77;;
18445;SDS011;9352;50.888;4.466;2023-06-10T06:27:43;12.98;;;10.15;;
18445;SDS011;9352;50.888;4.466;2023-06-10T06:30:12;13.45;;;9.52;;
18445;SDS011;9352;50.888;4.466;2023-06-10T06:32:39;15.07;;;10.07;;
18445;SDS011;9352;50.888;4.466;2023-06-10T06:35:06;14.18;;;9.00;;
18445;SDS011;9352;50.888;4.466;2023-06-10T06:37:33;15.68;;;9.68;;
18445;SDS011;9352;50.888;4.466;2023-06-10T06:40:01;14.68;;;9.25;;
18445;SDS011;9352;50.888;4.466;2023-06-10T06:42:28;15.32;;;9.32;;
18445;SDS011;9352;50.888;4.466;2023-06-10T06:44:55;16.20;;;9.45;;
18445;SDS011;9352;50.888;4.466;2023-06-10T06:47:24;12.88;;;9.32;;
18445;SDS011;9352;50.888;4.466;2023-06-10T06:49:51;13.23;;;9.27;;
18445;SDS011;9352;50.888;4.466;2023-06-10T06:52:18;12.60;;;8.82;;
18445;SDS011;9352;50.888;4.466;2023-06-10T06:54:45;10.80;;;9.25;;
18445;SDS011;9352;50.888;4.466;2023-06-10T06:57:12;15.00;;;8.63;;
18445;SDS011;9352;50.888;4.466;2023-06-10T06:59:39;13.68;;;8.30;;
18445;SDS011;9352;50.888;4.466;2023-06-10T07:02:06;12.57;;;8.80;;
18445;SDS011;9352;50.888;4.466;2023-06-10T07:04:34;12.27;;;8.60;;
18445;SDS011;9352;50.888;4.466;2023-06-10T07:07:01;16.35;;;8.95;;
18445;SDS011;9352;50.888;4.466;2023-06-10T07:09:28;11.27;;;8.43;;
18445;SDS011;9352;50.888;4.466;2023-06-10T07:11:55;17.38;;;8.60;;
18445;SDS011;9352;50.888;4.466;2023-06-10T07:14:22;13.82;;;7.95;;
18445;SDS011;9352;50.888;4.466;2023-06-10T07:16:49;15.82;;;8.23;;
18445;SDS011;9352;50.888;4.466;2023-06-10T07:19:15;13.45;;;8.50;;
18445;SDS011;9352;50.888;4.466;2023-06-10T07:21:44;13.95;;;7.93;;
18445;SDS011;9352;50.888;4.466;2023-06-10T07:24:11;13.65;;;8.23;;
18445;SDS011;9352;50.888;4.466;2023-06-10T07:26:37;9.98;;;8.13;;
18445;SDS011;9352;50.888;4.466;2023-06-10T07:29:04;10.02;;;8.25;;
18445;SDS011;9352;50.888;4.466;2023-06-10T07:31:31;9.75;;;8.23;;
18445;SDS011;9352;50.888;4.466;2023-06-10T07:33:58;9.15;;;7.47;;
18445;SDS011;9352;50.888;4.466;2023-06-10T07:36:25;9.05;;;7.10;;
18445;SDS011;9352;50.888;4.466;2023-06-10T07:38:55;10.45;;;7.35;;
18445;SDS011;9352;50.888;4.466;2023-06-10T07:41:22;14.98;;;7.55;;
18445;SDS011;9352;50.888;4.466;2023-06-10T07:43:50;12.40;;;6.90;;
18445;SDS011;9352;50.888;4.466;2023-06-10T07:46:19;7.90;;;6.78;;
18445;SDS011;9352;50.888;4.466;2023-06-10T07:48:46;8.05;;;6.30;;
18445;SDS011;9352;50.888;4.466;2023-06-10T07:51:13;8.00;;;7.20;;
18445;SDS011;9352;50.888;4.466;2023-06-10T07:53:42;12.05;;;7.55;;
18445;SDS011;9352;50.888;4.466;2023-06-10T07:56:11;12.82;;;7.60;;
18445;SDS011;9352;50.888;4.466;2023-06-10T07:58:38;14.43;;;7.13;;
18445;SDS011;9352;50.888;4.466;2023-06-10T08:01:05;7.43;;;6.65;;
18445;SDS011;9352;50.888;4.466;2023-06-10T08:03:32;12.77;;;6.55;;
18445;SDS011;9352;50.888;4.466;2023-06-10T08:05:59;10.23;;;6.50;;
18445;SDS011;9352;50.888;4.466;2023-06-10T08:08:26;8.32;;;6.57;;
18445;SDS011;9352;50.888;4.466;2023-06-10T08:10:53;12.88;;;7.03;;
18445;SDS011;9352;50.888;4.466;2023-06-10T08:13:21;8.75;;;6.38;;
18445;SDS011;9352;50.888;4.466;2023-06-10T08:15:48;8.38;;;6.40;;
18445;SDS011;9352;50.888;4.466;2023-06-10T08:18:15;7.43;;;6.28;;
18445;SDS011;9352;50.888;4.466;2023-06-10T08:20:42;7.40;;;6.00;;
18445;SDS011;9352;50.888;4.466;2023-06-10T08:23:09;9.77;;;6.60;;
18445;SDS011;9352;50.888;4.466;2023-06-10T08:25:36;15.40;;;7.03;;
18445;SDS011;9352;50.888;4.466;2023-06-10T08:28:03;9.32;;;6.38;;
18445;SDS011;9352;50.888;4.466;2023-06-10T08:30:31;7.82;;;6.45;;
18445;SDS011;9352;50.888;4.466;2023-06-10T08:32:59;10.48;;;6.57;;
18445;SDS011;9352;50.888;4.466;2023-06-10T08:35:26;11.27;;;6.25;;
18445;SDS011;9352;50.888;4.466;2023-06-10T08:37:53;7.00;;;6.40;;
18445;SDS011;9352;50.888;4.466;2023-06-10T08:40:20;6.93;;;6.32;;
18445;SDS011;9352;50.888;4.466;2023-06-10T08:42:48;9.80;;;5.88;;
18445;SDS011;9352;50.888;4.466;2023-06-10T08:45:19;7.55;;;6.50;;
18445;SDS011;9352;50.888;4.466;2023-06-10T08:47:51;8.95;;;6.03;;
18445;SDS011;9352;50.888;4.466;2023-06-10T08:50:20;8.38;;;6.13;;
18445;SDS011;9352;50.888;4.466;2023-06-10T08:52:48;7.57;;;5.90;;
18445;SDS011;9352;50.888;4.466;2023-06-10T08:55:18;9.23;;;6.25;;
18445;SDS011;9352;50.888;4.466;2023-06-10T08:57:51;7.25;;;5.65;;
18445;SDS011;9352;50.888;4.466;2023-06-10T09:00:18;7.95;;;5.93;;
18445;SDS011;9352;50.888;4.466;2023-06-10T09:02:45;11.32;;;5.90;;
18445;SDS011;9352;50.888;4.466;2023-06-10T09:05:14;6.40;;;5.80;;
18445;SDS011;9352;50.888;4.466;2023-06-10T09:07:42;7.47;;;5.55;;
18445;SDS011;9352;50.888;4.466;2023-06-10T09:10:10;10.27;;;6.18;;
18445;SDS011;9352;50.888;4.466;2023-06-10T09:12:38;11.18;;;6.03;;
18445;SDS011;9352;50.888;4.466;2023-06-10T09:15:05;7.22;;;5.75;;
18445;SDS011;9352;50.888;4.466;2023-06-10T09:17:33;6.15;;;5.55;;
18445;SDS011;9352;50.888;4.466;2023-06-10T09:20:01;10.27;;;5.97;;
18445;SDS011;9352;50.888;4.466;2023-06-10T09:22:29;9.73;;;5.85;;
18445;SDS011;9352;50.888;4.466;2023-06-10T09:25:03;6.53;;;5.93;;
18445;SDS011;9352;50.888;4.466;2023-06-10T09:27:34;6.40;;;5.20;;
18445;SDS011;9352;50.888;4.466;2023-06-10T09:30:21;8.13;;;5.10;;
18445;SDS011;9352;50.888;4.466;2023-06-10T09:32:52;8.75;;;5.30;;
18445;SDS011;9352;50.888;4.466;2023-06-10T09:35:21;6.80;;;5.32;;
18445;SDS011;9352;50.888;4.466;2023-06-10T09:37:51;9.43;;;5.30;;
18445;SDS011;9352;50.888;4.466;2023-06-10T09:40:18;12.60;;;5.38;;
18445;SDS011;9352;50.888;4.466;2023-06-10T09:42:45;8.32;;;5.63;;
18445;SDS011;9352;50.888;4.466;2023-06-10T09:45:18;7.22;;;5.32;;
18445;SDS011;9352;50.888;4.466;2023-06-10T09:47:45;8.18;;;5.57;;
18445;SDS011;9352;50.888;4.466;2023-06-10T09:50:13;8.48;;;5.82;;
18445;SDS011;9352;50.888;4.466;2023-06-10T09:52:40;10.00;;;5.60;;
18445;SDS011;9352;50.888;4.466;2023-06-10T09:55:09;8.57;;;5.07;;
18445;SDS011;9352;50.888;4.466;2023-06-10T09:57:36;16.02;;;5.68;;
18445;SDS011;9352;50.888;4.466;2023-06-10T10:00:04;8.93;;;5.43;;
18445;SDS011;9352;50.888;4.466;2023-06-10T10:02:33;10.15;;;5.72;;
18445;SDS011;9352;50.888;4.466;2023-06-10T10:05:12;11.45;;;6.30;;
18445;SDS011;9352;50.888;4.466;2023-06-10T10:07:40;8.48;;;5.68;;
18445;SDS011;9352;50.888;4.466;2023-06-10T10:10:09;8.82;;;5.57;;
18445;SDS011;9352;50.888;4.466;2023-06-10T10:12:37;9.82;;;5.65;;
18445;SDS011;9352;50.888;4.466;2023-06-10T10:15:05;9.25;;;6.18;;
18445;SDS011;9352;50.888;4.466;2023-06-10T10:17:34;11.55;;;5.32;;
18445;SDS011;9352;50.888;4.466;2023-06-10T10:20:04;29.30;;;6.35;;
18445;SDS011;9352;50.888;4.466;2023-06-10T10:22:35;9.43;;;5.72;;
18445;SDS011;9352;50.888;4.466;2023-06-10T10:25:05;10.73;;;5.82;;
18445;SDS011;9352;50.888;4.466;2023-06-10T10:27:38;7.30;;;5.55;;
18445;SDS011;9352;50.888;4.466;2023-06-10T10:30:10;6.20;;;5.70;;
18445;SDS011;9352;50.888;4.466;2023-06-10T10:32:38;8.52;;;5.88;;
18445;SDS011;9352;50.888;4.466;2023-06-10T10:35:12;6.05;;;5.65;;
18445;SDS011;9352;50.888;4.466;2023-06-10T10:37:43;9.05;;;5.82;;
18445;SDS011;9352;50.888;4.466;2023-06-10T10:40:11;9.55;;;5.88;;
18445;SDS011;9352;50.888;4.466;2023-06-10T10:42:39;8.40;;;5.97;;
18445;SDS011;9352;50.888;4.466;2023-06-10T10:45:08;6.95;;;5.63;;
18445;SDS011;9352;50.888;4.466;2023-06-10T10:47:36;5.70;;;5.22;;
18445;SDS011;9352;50.888;4.466;2023-06-10T10:50:12;6.20;;;5.60;;
18445;SDS011;9352;50.888;4.466;2023-06-10T10:52:46;10.55;;;5.93;;
18445;SDS011;9352;50.888;4.466;2023-06-10T10:55:18;6.30;;;5.72;;
18445;SDS011;9352;50.888;4.466;2023-06-10T10:57:53;7.28;;;6.47;;
18445;SDS011;9352;50.888;4.466;2023-06-10T11:00:24;8.93;;;5.90;;
18445;SDS011;9352;50.888;4.466;2023-06-10T11:02:57;7.25;;;5.55;;
18445;SDS011;9352;50.888;4.466;2023-06-10T11:05:31;8.25;;;5.45;;
18445;SDS011;9352;50.888;4.466;2023-06-10T11:08:03;9.43;;;5.93;;
18445;SDS011;9352;50.888;4.466;2023-06-10T11:10:33;10.73;;;5.80;;
18445;SDS011;9352;50.888;4.466;2023-06-10T11:13:04;6.70;;;5.90;;
18445;SDS011;9352;50.888;4.466;2023-06-10T11:15:32;8.50;;;5.50;;
18445;SDS011;9352;50.888;4.466;2023-06-10T11:18:13;6.72;;;5.35;;
18445;SDS011;9352;50.888;4.466;2023-06-10T11:20:50;11.05;;;5.25;;
18445;SDS011;9352;50.888;4.466;2023-06-10T11:23:38;5.97;;;5.10;;
18445;SDS011;9352;50.888;4.466;2023-06-10T11:26:18;7.05;;;5.47;;
18445;SDS011;9352;50.888;4.466;2023-06-10T11:29:03;8.50;;;5.55;;
18445;SDS011;9352;50.888;4.466;2023-06-10T11:31:43;9.70;;;5.25;;
18445;SDS011;9352;50.888;4.466;2023-06-10T11:34:11;8.57;;;5.38;;
18445;SDS011;9352;50.888;4.466;2023-06-10T11:36:40;8.02;;;5.65;;
18445;SDS011;9352;50.888;4.466;2023-06-10T11:39:10;6.18;;;5.68;;
18445;SDS011;9352;50.888;4.466;2023-06-10T11:41:39;6.47;;;5.43;;
18445;SDS011;9352;50.888;4.466;2023-06-10T11:44:09;6.00;;;5.43;;
18445;SDS011;9352;50.888;4.466;2023-06-10T11:46:37;5.38;;;5.03;;
18445;SDS011;9352;50.888;4.466;2023-06-10T11:49:04;11.00;;;6.38;;
18445;SDS011;9352;50.888;4.466;2023-06-10T11:51:32;8.35;;;5.75;;
18445;SDS011;9352;50.888;4.466;2023-06-10T11:54:00;8.63;;;5.70;;
18445;SDS011;9352;50.888;4.466;2023-06-10T11:56:29;6.10;;;5.60;;
18445;SDS011;9352;50.888;4.466;2023-06-10T11:58:58;9.98;;;5.70;;
18445;SDS011;9352;50.888;4.466;2023-06-10T12:01:30;6.45;;;5.90;;
18445;SDS011;9352;50.888;4.466;2023-06-10T12:03:58;6.35;;;5.75;;
18445;SDS011;9352;50.888;4.466;2023-06-10T12:06:28;9.00;;;5.82;;
18445;SDS011;9352;50.888;4.466;2023-06-10T12:09:04;7.28;;;5.88;;
18445;SDS011;9352;50.888;4.466;2023-06-10T12:11:31;6.47;;;5.85;;
18445;SDS011;9352;50.888;4.466;2023-06-10T12:14:00;6.75;;;6.10;;
18445;SDS011;9352;50.888;4.466;2023-06-10T12:16:28;5.90;;;5.50;;
18445;SDS011;9352;50.888;4.466;2023-06-10T12:19:00;10.95;;;6.32;;
18445;SDS011;9352;50.888;4.466;2023-06-10T12:21:28;9.75;;;5.80;;
18445;SDS011;9352;50.888;4.466;2023-06-10T12:23:59;11.20;;;5.68;;
18445;SDS011;9352;50.888;4.466;2023-06-10T12:26:33;6.60;;;6.10;;
18445;SDS011;9352;50.888;4.466;2023-06-10T12:31:56;11.93;;;5.57;;
18445;SDS011;9352;50.888;4.466;2023-06-10T12:34:28;6.43;;;5.80;;
18445;SDS011;9352;50.888;4.466;2023-06-10T12:36:55;6.47;;;5.85;;
18445;SDS011;9352;50.888;4.466;2023-06-10T12:39:22;8.65;;;5.53;;
18445;SDS011;9352;50.888;4.466;2023-06-10T12:41:49;6.45;;;5.80;;
18445;SDS011;9352;50.888;4.466;2023-06-10T12:44:17;7.03;;;5.53;;
18445;SDS011;9352;50.888;4.466;2023-06-10T12:46:46;6.45;;;5.78;;
18445;SDS011;9352;50.888;4.466;2023-06-10T12:49:20;10.73;;;5.40;;
18445;SDS011;9352;50.888;4.466;2023-06-10T12:51:47;8.95;;;5.95;;
18445;SDS011;9352;50.888;4.466;2023-06-10T12:54:14;13.45;;;5.80;;
18445;SDS011;9352;50.888;4.466;2023-06-10T12:56:41;7.15;;;5.82;;
18445;SDS011;9352;50.888;4.466;2023-06-10T12:59:08;7.03;;;5.82;;
18445;SDS011;9352;50.888;4.466;2023-06-10T13:01:37;6.82;;;5.28;;
18445;SDS011;9352;50.888;4.466;2023-06-10T13:04:05;9.00;;;5.63;;
18445;SDS011;9352;50.888;4.466;2023-06-10T13:06:33;7.22;;;5.50;;
18445;SDS011;9352;50.888;4.466;2023-06-10T13:09:02;6.20;;;5.63;;
18445;SDS011;9352;50.888;4.466;2023-06-10T13:11:30;6.15;;;5.60;;
18445;SDS011;9352;50.888;4.466;2023-06-10T13:13:57;9.45;;;6.00;;
18445;SDS011;9352;50.888;4.466;2023-06-10T13:16:24;6.20;;;5.60;;
18445;SDS011;9352;50.888;4.466;2023-06-10T13:18:52;7.35;;;5.45;;
18445;SDS011;9352;50.888;4.466;2023-06-10T13:21:21;5.38;;;4.97;;
18445;SDS011;9352;50.888;4.466;2023-06-10T13:23:48;11.50;;;5.63;;
18445;SDS011;9352;50.888;4.466;2023-06-10T13:26:15;9.10;;;5.80;;
18445;SDS011;9352;50.888;4.466;2023-06-10T13:28:42;6.55;;;5.40;;
18445;SDS011;9352;50.888;4.466;2023-06-10T13:31:09;6.00;;;5.50;;
18445;SDS011;9352;50.888;4.466;2023-06-10T13:33:36;5.95;;;5.47;;
18445;SDS011;9352;50.888;4.466;2023-06-10T13:36:03;7.78;;;5.40;;
18445;SDS011;9352;50.888;4.466;2023-06-10T13:38:32;6.43;;;5.68;;
18445;SDS011;9352;50.888;4.466;2023-06-10T13:40:59;13.32;;;5.85;;
18445;SDS011;9352;50.888;4.466;2023-06-10T13:43:26;5.80;;;5.40;;
18445;SDS011;9352;50.888;4.466;2023-06-10T13:45:54;8.23;;;5.47;;
18445;SDS011;9352;50.888;4.466;2023-06-10T13:48:20;6.13;;;5.32;;
18445;SDS011;9352;50.888;4.466;2023-06-10T13:50:47;6.53;;;5.72;;
18445;SDS011;9352;50.888;4.466;2023-06-10T13:53:14;10.40;;;5.40;;
18445;SDS011;9352;50.888;4.466;2023-06-10T13:55:43;9.55;;;5.47;;
18445;SDS011;9352;50.888;4.466;2023-06-10T13:58:09;8.45;;;6.13;;
18445;SDS011;9352;50.888;4.466;2023-06-10T14:00:36;8.27;;;5.95;;
18445;SDS011;9352;50.888;4.466;2023-06-10T14:03:03;7.07;;;6.28;;
18445;SDS011;9352;50.888;4.466;2023-06-10T14:05:30;6.13;;;5.63;;
18445;SDS011;9352;50.888;4.466;2023-06-10T14:07:58;7.80;;;6.07;;
18445;SDS011;9352;50.888;4.466;2023-06-10T14:10:25;8.25;;;5.60;;
18445;SDS011;9352;50.888;4.466;2023-06-10T14:12:53;6.47;;;5.88;;
18445;SDS011;9352;50.888;4.466;2023-06-10T14:15:20;6.70;;;5.97;;
18445;SDS011;9352;50.888;4.466;2023-06-10T14:17:47;6.45;;;5.85;;
18445;SDS011;9352;50.888;4.466;2023-06-10T14:20:14;5.95;;;5.50;;
18445;SDS011;9352;50.888;4.466;2023-06-10T14:22:41;9.85;;;5.90;;
18445;SDS011;9352;50.888;4.466;2023-06-10T14:25:08;6.70;;;5.97;;
18445;SDS011;9352;50.888;4.466;2023-06-10T14:27:36;9.30;;;6.18;;
18445;SDS011;9352;50.888;4.466;2023-06-10T14:30:05;6.63;;;5.90;;
18445;SDS011;9352;50.888;4.466;2023-06-10T14:32:32;6.60;;;5.68;;
18445;SDS011;9352;50.888;4.466;2023-06-10T14:34:59;10.02;;;5.60;;
18445;SDS011;9352;50.888;4.466;2023-06-10T14:37:26;10.43;;;5.85;;
18445;SDS011;9352;50.888;4.466;2023-06-10T14:39:53;8.00;;;5.72;;
18445;SDS011;9352;50.888;4.466;2023-06-10T14:42:20;11.63;;;6.10;;
18445;SDS011;9352;50.888;4.466;2023-06-10T14:44:47;6.07;;;5.57;;
18445;SDS011;9352;50.888;4.466;2023-06-10T14:47:15;10.07;;;6.15;;
18445;SDS011;9352;50.888;4.466;2023-06-10T14:49:42;6.03;;;5.63;;
18445;SDS011;9352;50.888;4.466;2023-06-10T14:52:09;8.43;;;5.50;;
18445;SDS011;9352;50.888;4.466;2023-06-10T14:54:36;6.50;;;5.90;;
18445;SDS011;9352;50.888;4.466;2023-06-10T14:57:03;9.15;;;5.90;;
18445;SDS011;9352;50.888;4.466;2023-06-10T14:59:32;7.65;;;5.80;;
18445;SDS011;9352;50.888;4.466;2023-06-10T15:01:59;9.00;;;5.90;;